Time;durP1;ratioP1;P1;durP2;ratioP2;P2;SDS_P1;SDS_P2;PMS_P1;PMS_P2;Temp;Humidity;BMP_temperature;BMP_pressure;BME280_temperature;BME280_humidity;BME280_pressure;Samples;Min_cycle;Max_cycle;Signal;HPM_P1;HPM_P2
2021/03/16 00:02:23;;;;;;;17.40;11.05;;;;;;;2.29;87.21;97314.09;5051616;28;20032;-75
2021/03/16 00:04:48;;;;;;;14.75;10.13;;;;;;;2.24;86.42;97305.94;5051328;28;20116;-74
2021/03/16 00:07:14;;;;;;;;;;;;;;;2.29;86.48;97317.56;5052265;28;20033;-75
2021/03/16 00:09:40;;;;;;;14.77;8.70;;;;;;;2.38;86.53;97317.94;5053093;28;20121;-75
2021/03/16 00:12:06;;;;;;;12.60;7.60;;;;;;;2.41;86.35;97318.19;5056536;28;20052;-77
2021/03/16 00:14:31;;;;;;;14.73;9.38;;;;;;;2.25;87.29;97315.66;5055067;28;20072;-75
2021/03/16 00:16:56;;;;;;;14.68;9.45;;;;;;;2.14;87.96;97307.47;5050729;28;20110;-75
2021/03/16 00:19:22;;;;;;;;;;;;;;;2.05;88.67;97327.09;5052349;28;20396;-75
2021/03/16 00:21:47;;;;;;;16.02;9.57;;;;;;;1.93;88.98;97324.56;5051240;28;19916;-76
2021/03/16 00:24:13;;;;;;;16.15;8.55;;;;;;;1.99;89.05;97325.41;5050640;28;20159;-75
2021/03/16 00:26:38;;;;;;;14.30;8.68;;;;;;;1.87;89.58;97317.50;5051766;28;20033;-75
2021/03/16 00:29:04;;;;;;;16.00;9.35;;;;;;;1.65;90.07;97319.44;5050298;28;20025;-75
2021/03/16 00:31:30;;;;;;;11.52;8.85;;;;;;;1.50;90.98;97313.91;5051504;28;20517;-75
2021/03/16 00:33:55;;;;;;;11.75;7.25;;;;;;;1.51;91.05;97323.59;5051384;28;20484;-75
2021/03/16 00:36:21;;;;;;;;;;;;;;;1.61;90.90;97326.41;5051703;28;20405;-75
2021/03/16 00:38:46;;;;;;;13.80;7.38;;;;;;;1.45;91.10;97336.19;5050836;28;19998;-75
2021/03/16 00:41:12;;;;;;;11.90;7.38;;;;;;;1.46;91.31;97326.25;5051040;28;20155;-76
2021/03/16 00:43:37;;;;;;;13.00;7.78;;;;;;;1.34;91.15;97333.66;5049845;28;20469;-75
2021/03/16 00:46:02;;;;;;;;;;;;;;;1.29;91.30;97339.78;5051075;28;20112;-75
2021/03/16 00:48:28;;;;;;;11.35;7.13;;;;;;;1.15;92.01;97327.78;5051021;28;19971;-75
2021/03/16 00:50:54;;;;;;;14.32;8.40;;;;;;;1.24;91.61;97334.34;5051234;28;20025;-75
2021/03/16 00:53:20;;;;;;;13.32;8.02;;;;;;;1.16;91.99;97336.66;5050979;28;20029;-75
2021/03/16 00:55:45;;;;;;;16.75;9.10;;;;;;;1.14;91.62;97336.09;5051198;28;20021;-75
2021/03/16 00:58:11;;;;;;;15.05;7.82;;;;;;;1.03;92.17;97327.88;5051701;28;20032;-75
2021/03/16 01:00:36;;;;;;;14.35;8.43;;;;;;;1.10;92.11;97340.38;5049735;28;20025;-75
2021/03/16 01:03:01;;;;;;;12.35;7.65;;;;;;;1.15;91.51;97341.22;5051683;28;20091;-75
2021/03/16 01:05:27;;;;;;;11.02;6.78;;;;;;;1.02;91.25;97328.97;5051917;28;20470;-75
2021/03/16 01:07:53;;;;;;;14.68;8.77;;;;;;;0.96;91.27;97326.44;5051706;28;20033;-76
2021/03/16 01:10:20;;;;;;;16.52;9.00;;;;;;;0.96;91.68;97332.66;5052279;28;20025;-76
2021/03/16 01:12:45;;;;;;;16.35;9.05;;;;;;;0.84;91.82;97336.53;5052114;28;20075;-75
2021/03/16 01:15:12;;;;;;;12.13;8.93;;;;;;;0.82;92.26;97328.69;5052237;28;20029;-75
2021/03/16 01:17:38;;;;;;;11.63;8.27;;;;;;;0.80;92.43;97325.44;5052937;28;20024;-76
2021/03/16 01:20:11;;;;;;;12.63;7.65;;;;;;;0.92;92.05;97330.69;5052380;28;20446;-75
2021/03/16 01:22:36;;;;;;;14.77;9.02;;;;;;;0.74;92.39;97334.50;5053287;28;20098;-77
2021/03/16 01:25:03;;;;;;;11.30;8.40;;;;;;;0.82;92.35;97314.41;5053588;28;20470;-75
2021/03/16 01:27:28;;;;;;;15.07;8.82;;;;;;;0.97;92.00;97320.00;5051882;28;20032;-75
2021/03/16 01:29:53;;;;;;;13.52;7.70;;;;;;;0.90;91.57;97309.44;5050830;28;20025;-76
2021/03/16 01:32:19;;;;;;;14.70;7.47;;;;;;;0.95;91.96;97306.78;5051514;28;20393;-75
2021/03/16 01:34:44;;;;;;;;;;;;;;;1.07;91.44;97303.97;5053904;28;20066;-76
2021/03/16 01:37:10;;;;;;;10.68;7.43;;;;;;;0.99;91.54;97315.19;5055111;28;19912;-75
2021/03/16 01:39:35;;;;;;;;;;;;;;;0.82;91.88;97303.63;5055254;28;20499;-75
2021/03/16 01:42:00;;;;;;;11.65;7.38;;;;;;;0.60;93.31;97303.63;5056431;28;19919;-75
2021/03/16 01:44:26;;;;;;;13.75;8.15;;;;;;;0.74;92.72;97301.41;5055939;28;20121;-75
2021/03/16 01:46:51;;;;;;;17.40;8.95;;;;;;;0.81;92.51;97297.47;5055260;28;20116;-76
2021/03/16 01:49:17;;;;;;;;;;;;;;;0.80;92.71;97301.22;5056669;28;20033;-76
2021/03/16 01:51:43;;;;;;;13.70;7.95;;;;;;;0.86;92.84;97305.59;5056765;28;19917;-75
2021/03/16 01:54:09;;;;;;;13.23;6.78;;;;;;;0.89;92.34;97307.78;5056168;28;20029;-75
2021/03/16 01:56:38;;;;;;;12.45;7.80;;;;;;;0.88;92.58;97297.25;5054026;28;20713;-76
2021/03/16 01:59:03;;;;;;;11.25;7.15;;;;;;;0.87;92.21;97301.03;5053430;28;20055;-75
2021/03/16 02:01:29;;;;;;;11.23;7.88;;;;;;;0.81;92.01;97286.69;5053361;28;20383;-75
2021/03/16 02:03:54;;;;;;;14.45;7.03;;;;;;;0.75;92.58;97290.38;5053265;28;20056;-76
2021/03/16 02:06:38;;;;;;;11.75;7.20;;;;;;;0.73;92.48;97292.50;5052901;28;20036;-76
2021/03/16 02:09:14;;;;;;;13.55;7.43;;;;;;;0.80;93.16;97290.44;5053275;28;20110;-74
2021/03/16 02:11:47;;;;;;;10.65;7.15;;;;;;;0.78;92.81;97281.81;5053146;28;20366;-74
2021/03/16 02:14:33;;;;;;;9.38;6.60;;;;;;;0.88;92.27;97287.31;5053558;28;20032;-75
2021/03/16 02:17:13;;;;;;;10.13;6.07;;;;;;;0.84;92.37;97288.91;5053464;28;20078;-73
2021/03/16 02:20:06;;;;;;;13.10;7.10;;;;;;;0.87;92.02;97298.34;5053488;28;20064;-75
2021/03/16 02:22:34;;;;;;;11.32;5.88;;;;;;;0.85;92.11;97292.38;5053873;28;20021;-74
2021/03/16 02:25:07;;;;;;;11.55;6.57;;;;;;;0.84;92.07;97296.97;5053685;28;20040;-75
2021/03/16 02:28:14;;;;;;;8.45;6.38;;;;;;;0.93;92.10;97289.25;5054617;28;20036;-77
2021/03/16 02:30:43;;;;;;;9.82;6.32;;;;;;;0.91;91.78;97291.38;5046540;28;20033;-78
2021/03/16 02:33:11;;;;;;;9.75;7.30;;;;;;;0.83;92.24;97306.09;5055133;28;20543;-75
2021/03/16 02:35:39;;;;;;;10.40;7.30;;;;;;;0.85;91.84;97290.50;5052910;28;20059;-75
2021/03/16 02:38:07;;;;;;;8.98;6.35;;;;;;;0.73;92.46;97276.34;5052616;28;20048;-75
2021/03/16 02:40:34;;;;;;;13.40;7.35;;;;;;;0.80;92.55;97285.06;5052442;28;20116;-75
2021/03/16 02:43:02;;;;;;;9.90;5.72;;;;;;;0.87;92.58;97277.63;5052277;28;20029;-75
2021/03/16 02:45:29;;;;;;;8.48;5.18;;;;;;;0.92;91.45;97274.16;5051760;28;20033;-75
2021/03/16 02:47:56;;;;;;;13.18;6.45;;;;;;;0.95;91.47;97266.41;5052236;28;20040;-75
2021/03/16 02:50:23;;;;;;;7.85;5.80;;;;;;;0.96;91.29;97267.22;5052270;28;20021;-76
2021/03/16 02:52:49;;;;;;;7.90;4.95;;;;;;;0.92;91.17;97266.09;5052533;28;20053;-75
2021/03/16 02:55:15;;;;;;;8.13;4.82;;;;;;;0.91;90.72;97269.84;5051984;28;20036;-75
2021/03/16 02:57:44;;;;;;;8.95;4.18;;;;;;;1.00;90.52;97274.53;5051348;28;20037;-76
2021/03/16 03:00:10;;;;;;;8.60;5.38;;;;;;;1.16;90.54;97272.03;5052654;28;20035;-76
2021/03/16 03:02:38;;;;;;;12.55;5.00;;;;;;;0.98;90.97;97276.66;5052412;28;20474;-76
2021/03/16 03:05:06;;;;;;;12.13;5.95;;;;;;;1.06;90.96;97287.00;5052279;28;20028;-75
2021/03/16 03:07:33;;;;;;;8.30;5.53;;;;;;;1.10;91.16;97283.81;5052072;28;20032;-75
2021/03/16 03:09:59;;;;;;;7.47;5.20;;;;;;;1.03;91.56;97279.41;5051259;28;20017;-75
2021/03/16 03:12:25;;;;;;;6.93;4.53;;;;;;;1.15;90.61;97287.38;5052544;28;20033;-75
2021/03/16 03:14:50;;;;;;;6.82;4.53;;;;;;;0.94;90.57;97293.59;5052730;28;20021;-75
2021/03/16 03:17:15;;;;;;;7.15;4.45;;;;;;;0.80;91.37;97306.59;5053614;28;20497;-76
2021/03/16 03:19:40;;;;;;;;;;;;;;;0.80;91.71;97306.59;5054271;28;20025;-75
2021/03/16 03:22:28;;;;;;;7.30;5.00;;;;;;;0.81;91.44;97302.03;5051685;28;19923;-76
2021/03/16 03:25:01;;;;;;;8.20;5.75;;;;;;;0.77;91.49;97301.72;5051798;28;20155;-75
2021/03/16 03:27:32;;;;;;;8.13;4.28;;;;;;;0.74;92.08;97299.53;5049376;28;20037;-75
2021/03/16 03:30:00;;;;;;;11.32;5.75;;;;;;;0.70;91.91;97306.44;5051633;28;20060;-75
2021/03/16 03:32:28;;;;;;;16.83;5.82;;;;;;;0.72;92.14;97317.78;5051606;28;20025;-74
2021/03/16 03:34:54;;;;;;;8.07;4.60;;;;;;;0.77;91.78;97317.84;5051130;28;20028;-75
2021/03/16 03:37:24;;;;;;;9.35;5.70;;;;;;;0.78;91.60;97329.44;5051267;28;20052;-74
2021/03/16 03:39:51;;;;;;;8.25;5.00;;;;;;;0.74;91.44;97323.75;5051309;28;20032;-75
2021/03/16 03:42:18;;;;;;;8.98;5.28;;;;;;;0.80;91.61;97338.88;5051553;28;20081;-76
2021/03/16 03:44:46;;;;;;;6.65;5.03;;;;;;;0.90;91.29;97333.66;5051379;28;20473;-75
2021/03/16 03:47:15;;;;;;;7.80;5.28;;;;;;;0.75;91.59;97329.94;5050912;28;20103;-75
2021/03/16 03:49:41;;;;;;;7.65;4.88;;;;;;;0.78;91.83;97335.66;5051422;28;20378;-76
2021/03/16 03:52:10;;;;;;;7.10;5.25;;;;;;;0.80;91.61;97349.66;5051370;28;20056;-74
2021/03/16 03:54:36;;;;;;;8.77;5.82;;;;;;;0.62;92.24;97341.88;5051381;28;20044;-75
2021/03/16 03:57:04;;;;;;;10.57;6.55;;;;;;;0.72;92.28;97358.13;5051831;28;20111;-75
2021/03/16 03:59:30;;;;;;;8.55;6.07;;;;;;;0.78;91.89;97357.19;5051356;28;20063;-75
2021/03/16 04:01:56;;;;;;;8.30;5.22;;;;;;;0.79;91.44;97350.72;5050758;28;20053;-78
2021/03/16 04:04:22;;;;;;;8.55;5.88;;;;;;;0.63;91.95;97353.44;5052094;28;20059;-75
2021/03/16 04:06:47;;;;;;;6.95;5.47;;;;;;;0.60;92.58;97359.28;5050951;28;20402;-75
2021/03/16 04:09:14;;;;;;;11.73;5.65;;;;;;;0.60;92.73;97362.81;5049679;28;20477;-75
2021/03/16 04:11:40;;;;;;;10.93;6.28;;;;;;;0.61;92.46;97360.94;5051325;28;20127;-77
2021/03/16 04:14:05;;;;;;;9.65;7.53;;;;;;;0.48;93.14;97357.53;5050920;28;20544;-75
2021/03/16 04:16:31;;;;;;;10.57;6.32;;;;;;;0.52;92.77;97361.38;5050986;28;20032;-75
2021/03/16 04:18:58;;;;;;;8.82;5.63;;;;;;;0.42;93.38;97358.50;5049665;28;20481;-75
2021/03/16 04:21:24;;;;;;;10.10;5.47;;;;;;;0.41;93.29;97366.81;5051087;28;20036;-76
2021/03/16 04:23:50;;;;;;;9.02;5.63;;;;;;;0.36;93.16;97364.88;5050938;28;20029;-75
2021/03/16 04:26:15;;;;;;;8.23;4.68;;;;;;;0.28;93.52;97384.09;5050873;28;20049;-76
2021/03/16 04:28:41;;;;;;;10.77;5.95;;;;;;;0.43;93.05;97376.28;5051071;28;20114;-75
2021/03/16 04:31:06;;;;;;;9.23;6.00;;;;;;;0.35;93.42;97379.38;5050982;28;20488;-75
2021/03/16 04:33:31;;;;;;;;;;;;;;;0.28;93.72;97372.53;5051497;28;20044;-76
2021/03/16 04:35:57;;;;;;;10.98;5.63;;;;;;;0.28;93.80;97372.53;5050977;28;20000;-76
2021/03/16 04:38:22;;;;;;;8.35;5.85;;;;;;;0.25;93.78;97378.41;5050692;28;20041;-75
2021/03/16 04:40:47;;;;;;;9.40;4.72;;;;;;;0.20;94.30;97386.38;5049427;28;20065;-75
2021/03/16 04:43:13;;;;;;;11.70;6.38;;;;;;;0.15;94.46;97392.50;5050758;28;20064;-75
2021/03/16 04:45:38;;;;;;;9.30;5.40;;;;;;;0.15;94.33;97394.38;5051288;28;20037;-75
2021/03/16 04:48:04;;;;;;;14.73;5.95;;;;;;;0.14;94.75;97393.53;5051153;28;20040;-76
2021/03/16 04:50:31;;;;;;;7.85;5.50;;;;;;;0.20;94.36;97392.56;5050633;28;20797;-75
2021/03/16 04:52:56;;;;;;;10.13;5.53;;;;;;;0.22;94.34;97401.19;5050302;28;20029;-76
2021/03/16 04:55:22;;;;;;;9.18;5.85;;;;;;;0.22;94.34;97395.81;5050864;28;20032;-76
2021/03/16 04:57:47;;;;;;;7.18;5.47;;;;;;;0.24;94.32;97403.66;5051096;28;20083;-75
2021/03/16 05:00:13;;;;;;;7.55;5.60;;;;;;;0.39;93.88;97401.22;5050784;28;20503;-76
2021/03/16 05:02:39;;;;;;;7.72;5.13;;;;;;;0.33;93.90;97408.38;5050144;28;20025;-75
2021/03/16 05:05:05;;;;;;;9.60;5.82;;;;;;;0.52;94.01;97407.09;5050815;28;20052;-75
2021/03/16 05:07:31;;;;;;;8.35;5.25;;;;;;;0.60;93.26;97411.22;5051159;28;20025;-75
2021/03/16 05:09:56;;;;;;;12.73;6.90;;;;;;;0.47;92.51;97396.22;5046878;28;20032;-75
2021/03/16 05:12:22;;;;;;;8.98;5.88;;;;;;;0.48;93.26;97415.88;5054478;28;20025;-80
2021/03/16 05:14:47;;;;;;;8.50;5.88;;;;;;;0.56;92.69;97393.16;5053553;28;20470;-75
2021/03/16 05:17:15;;;;;;;15.90;7.72;;;;;;;0.46;93.10;97391.94;5052421;28;20021;-76
2021/03/16 05:19:40;;;;;;;10.57;6.78;;;;;;;0.54;92.98;97406.84;5052233;28;20021;-75
2021/03/16 05:22:06;;;;;;;12.50;7.97;;;;;;;0.42;93.35;97416.88;5055020;28;20032;-77
2021/03/16 05:24:32;;;;;;;8.52;6.00;;;;;;;0.47;93.71;97419.66;5056407;28;20025;-75
2021/03/16 05:26:58;;;;;;;14.70;6.95;;;;;;;0.61;92.92;97425.50;5053588;28;20052;-75
2021/03/16 05:29:24;;;;;;;11.20;6.63;;;;;;;0.66;92.83;97426.38;5051560;28;20386;-75
2021/03/16 05:31:49;;;;;;;9.57;6.50;;;;;;;0.69;92.52;97427.81;5052214;28;20017;-72
2021/03/16 05:34:15;;;;;;;9.00;6.80;;;;;;;0.74;92.27;97415.22;5055186;28;20040;-76
2021/03/16 05:36:40;;;;;;;11.20;6.40;;;;;;;0.71;92.23;97421.09;5053420;28;20025;-76
2021/03/16 05:39:06;;;;;;;;;;;;;;;0.79;92.33;97428.75;5053543;28;20509;-79
2021/03/16 05:41:32;;;;;;;12.20;5.90;;;;;;;0.86;91.32;97434.78;5051825;28;19943;-75
2021/03/16 05:44:00;;;;;;;9.88;5.60;;;;;;;0.89;91.14;97428.09;5048572;28;20070;-74
2021/03/16 05:46:26;;;;;;;11.95;6.15;;;;;;;0.72;92.03;97438.88;5051256;28;20033;-75
2021/03/16 05:48:54;;;;;;;12.85;7.25;;;;;;;0.70;92.29;97441.00;5049409;28;20025;-75
2021/03/16 05:51:19;;;;;;;9.48;6.97;;;;;;;0.77;92.53;97444.34;5053137;28;20105;-75
2021/03/16 05:53:48;;;;;;;13.80;7.40;;;;;;;0.82;91.71;97444.41;5052412;28;20549;-77
2021/03/16 05:56:14;;;;;;;12.88;7.22;;;;;;;0.94;91.20;97453.19;5052910;28;20025;-75
2021/03/16 05:58:39;;;;;;;15.43;7.07;;;;;;;0.97;90.79;97454.63;5051974;28;20025;-75
2021/03/16 06:01:05;;;;;;;11.52;6.38;;;;;;;1.03;90.48;97461.69;5051726;28;20035;-74
2021/03/16 06:03:30;;;;;;;;;;;;;;;0.91;90.67;97463.66;5051131;28;20037;-75
2021/03/16 06:05:55;;;;;;;11.00;5.80;;;;;;;0.99;90.67;97456.00;5049235;28;19916;-75
2021/03/16 06:08:20;;;;;;;;;;;;;;;1.20;90.00;97469.72;5050129;28;20028;-76
2021/03/16 06:10:46;;;;;;;8.80;4.93;;;;;;;1.34;88.80;97473.72;5050853;28;20011;-75
2021/03/16 06:13:13;;;;;;;;;;;;;;;1.47;88.61;97479.53;5050931;28;20029;-75
2021/03/16 06:15:38;;;;;;;10.07;6.20;;;;;;;1.58;87.67;97481.31;5049527;28;19916;-75
2021/03/16 06:18:04;;;;;;;;;;;;;;;1.82;86.77;97471.09;5050569;28;20037;-75
2021/03/16 06:20:32;;;;;;;13.27;5.20;;;;;;;1.77;86.58;97472.94;5050079;28;19920;-75
2021/03/16 06:23:04;;;;;;;10.63;4.90;;;;;;;2.15;85.16;97480.94;5050135;28;20017;-75
2021/03/16 06:25:48;;;;;;;15.68;7.18;;;;;;;2.00;84.82;97484.28;5047685;28;20036;-75
2021/03/16 06:28:15;;;;;;;10.38;5.90;;;;;;;2.15;84.76;97481.75;5049201;28;20025;-75
2021/03/16 06:30:42;;;;;;;9.50;6.13;;;;;;;2.08;84.64;97491.09;5050446;28;20024;-75
2021/03/16 06:33:18;;;;;;;13.25;8.93;;;;;;;2.29;84.35;97505.63;5050934;28;20033;-76
2021/03/16 06:36:00;;;;;;;13.55;6.97;;;;;;;2.46;83.48;97503.63;5053077;28;20025;-75
2021/03/16 06:38:27;;;;;;;9.05;6.57;;;;;;;2.40;82.94;97505.47;5053102;28;20064;-76
2021/03/16 06:40:53;;;;;;;12.35;6.20;;;;;;;2.64;81.99;97511.38;5053327;28;20029;-75
2021/03/16 06:43:25;;;;;;;10.98;6.82;;;;;;;2.43;82.51;97504.16;5054199;28;20040;-76
2021/03/16 06:45:52;;;;;;;10.57;6.47;;;;;;;2.69;81.90;97506.03;5052898;28;20033;-77
2021/03/16 06:48:20;;;;;;;12.05;6.00;;;;;;;2.70;81.32;97523.84;5052839;28;20063;-77
2021/03/16 06:50:47;;;;;;;9.63;5.97;;;;;;;2.89;81.01;97517.00;5051690;28;20515;-76
2021/03/16 06:53:21;;;;;;;7.65;6.00;;;;;;;3.03;80.07;97520.91;5052980;28;20035;-76
2021/03/16 06:55:59;;;;;;;13.52;7.88;;;;;;;2.77;81.46;97524.47;5053871;28;20029;-77
2021/03/16 06:58:26;;;;;;;15.63;8.00;;;;;;;2.64;82.14;97535.66;5055609;28;20029;-76
2021/03/16 07:01:08;;;;;;;11.35;6.97;;;;;;;3.00;81.21;97531.41;5054650;28;20029;-76
2021/03/16 07:03:35;;;;;;;8.05;5.90;;;;;;;3.02;80.67;97527.38;5054992;28;20032;-75
2021/03/16 07:06:11;;;;;;;11.75;6.28;;;;;;;3.22;79.48;97549.16;5055945;28;20021;-75
2021/03/16 07:08:37;;;;;;;14.02;7.18;;;;;;;3.36;79.27;97546.00;5055661;28;20024;-76
2021/03/16 07:11:06;;;;;;;13.98;6.35;;;;;;;3.90;76.72;97552.84;5053030;28;20119;-74
2021/03/16 07:13:33;;;;;;;15.48;7.10;;;;;;;3.92;76.26;97549.88;5053876;28;20020;-75
2021/03/16 07:16:00;;;;;;;11.98;7.60;;;;;;;4.23;75.03;97559.75;5053519;28;20021;-75
2021/03/16 07:18:26;;;;;;;7.65;6.43;;;;;;;4.52;74.46;97555.53;5051940;28;20108;-75
2021/03/16 07:20:58;;;;;;;9.73;7.13;;;;;;;4.94;72.42;97558.09;5053062;28;20025;-75
2021/03/16 07:23:25;;;;;;;13.77;6.47;;;;;;;5.16;71.38;97561.34;5053620;28;20032;-75
2021/03/16 07:25:52;;;;;;;10.48;5.55;;;;;;;5.64;69.40;97557.25;5053381;28;20028;-75
2021/03/16 07:28:18;;;;;;;8.02;4.43;;;;;;;6.22;66.12;97558.50;5053404;28;20072;-75
2021/03/16 07:30:44;;;;;;;10.57;4.93;;;;;;;5.36;67.51;97561.34;5052331;28;20029;-74
2021/03/16 07:33:13;;;;;;;5.75;4.28;;;;;;;5.66;67.57;97575.97;5051310;28;20029;-74
2021/03/16 07:35:39;;;;;;;4.72;3.47;;;;;;;6.07;66.23;97569.44;5051437;28;20032;-74
2021/03/16 07:38:04;;;;;;;8.65;3.50;;;;;;;6.70;63.79;97565.09;5051519;28;20040;-74
2021/03/16 07:40:30;;;;;;;6.10;3.60;;;;;;;6.76;62.15;97557.72;5051793;28;20029;-75
2021/03/16 07:42:55;;;;;;;6.18;3.22;;;;;;;7.33;60.67;97567.94;5050463;28;20110;-76
2021/03/16 07:45:27;;;;;;;5.05;3.25;;;;;;;8.81;55.92;97568.81;5049878;28;20066;-75
2021/03/16 07:47:53;;;;;;;5.03;3.30;;;;;;;9.22;54.36;97572.59;5049711;28;20087;-76
2021/03/16 07:50:26;;;;;;;4.57;3.30;;;;;;;8.96;54.01;97574.06;5051262;28;20075;-75
2021/03/16 07:52:52;;;;;;;4.05;2.95;;;;;;;9.60;52.95;97578.84;5051677;28;20060;-78
2021/03/16 07:55:31;;;;;;;7.30;4.18;;;;;;;10.09;52.06;97580.97;5039484;28;20068;-74
2021/03/16 07:58:26;;;;;;;5.55;3.60;;;;;;;11.38;48.24;97574.19;5047844;28;20474;-74
2021/03/16 08:01:03;;;;;;;4.90;3.78;;;;;;;12.34;45.66;97586.31;5044930;28;20045;-74
2021/03/16 08:03:28;;;;;;;10.52;4.22;;;;;;;13.80;42.26;97584.66;5050060;28;20425;-74
2021/03/16 08:05:53;;;;;;;7.03;3.83;;;;;;;12.52;43.48;97582.53;5049864;28;20025;-75
2021/03/16 08:08:20;;;;;;;10.20;4.07;;;;;;;12.33;43.20;97590.19;5049124;28;20028;-76
2021/03/16 08:10:46;;;;;;;6.75;3.42;;;;;;;14.88;39.15;97595.19;5049383;28;20396;-75
2021/03/16 08:13:17;;;;;;;4.25;3.00;;;;;;;12.87;41.22;97588.94;5049992;28;20032;-75
2021/03/16 08:15:48;;;;;;;7.75;3.50;;;;;;;14.82;36.86;97596.53;5049965;28;20508;-74
2021/03/16 08:18:25;;;;;;;7.18;4.15;;;;;;;15.95;34.69;97587.13;5049852;28;20123;-74
2021/03/16 08:20:51;;;;;;;4.68;2.72;;;;;;;14.25;36.77;97587.81;5049806;28;20036;-76
2021/03/16 08:23:16;;;;;;;8.55;3.70;;;;;;;14.35;36.41;97592.19;5050314;28;20033;-75
2021/03/16 08:25:47;;;;;;;6.30;3.60;;;;;;;14.80;35.36;97590.56;5050081;28;20457;-75
2021/03/16 08:28:16;;;;;;;4.80;2.58;;;;;;;14.64;34.99;97600.50;5050277;28;20037;-78
2021/03/16 08:30:41;;;;;;;4.47;2.22;;;;;;;14.65;34.73;97593.88;5048784;28;20033;-75
2021/03/16 08:33:12;;;;;;;4.50;2.10;;;;;;;15.00;33.91;97600.78;5050110;28;20033;-74
2021/03/16 08:35:49;;;;;;;11.38;3.50;;;;;;;16.68;31.71;97603.94;5050216;28;20079;-75
2021/03/16 08:38:26;;;;;;;5.53;2.63;;;;;;;16.92;31.19;97619.69;5060343;28;20059;-77
2021/03/16 08:41:04;;;;;;;5.57;2.35;;;;;;;14.22;35.67;97606.94;5048907;28;20041;-75
2021/03/16 08:43:30;;;;;;;7.07;2.78;;;;;;;14.42;35.50;97601.56;5049869;28;20139;-74
2021/03/16 08:45:57;;;;;;;4.35;2.55;;;;;;;14.79;35.05;97593.63;5052517;28;20103;-76
2021/03/16 08:48:28;;;;;;;5.35;2.10;;;;;;;16.36;32.75;97597.28;5053761;28;20056;-74
2021/03/16 08:50:53;;;;;;;3.75;2.90;;;;;;;15.47;33.81;97600.69;5053877;28;20025;-75
2021/03/16 08:53:18;;;;;;;5.78;1.92;;;;;;;15.76;33.30;97599.81;5053948;28;20029;-74
2021/03/16 08:55:52;;;;;;;3.58;2.42;;;;;;;16.49;32.40;97600.88;5053337;28;20025;-74
2021/03/16 08:58:18;;;;;;;4.32;2.40;;;;;;;16.22;32.19;97601.50;5054079;28;20028;-74
2021/03/16 09:00:44;;;;;;;5.57;1.95;;;;;;;16.49;31.44;97609.16;5053651;28;20094;-73
2021/03/16 09:03:10;;;;;;;4.30;2.10;;;;;;;17.10;30.21;97605.31;5053641;28;20400;-73
2021/03/16 09:05:35;;;;;;;4.03;2.22;;;;;;;16.28;31.73;97617.50;5053550;28;20021;-74
2021/03/16 09:08:01;;;;;;;3.08;1.67;;;;;;;16.42;31.60;97603.38;5053635;28;20039;-74
2021/03/16 09:10:27;;;;;;;2.55;1.83;;;;;;;16.49;31.45;97607.19;5053429;28;20109;-74
2021/03/16 09:12:53;;;;;;;3.22;2.00;;;;;;;15.37;32.57;97606.59;5052268;28;20029;-74
2021/03/16 09:15:22;;;;;;;2.72;2.15;;;;;;;14.94;33.56;97593.84;5053434;28;20384;-74
2021/03/16 09:17:53;;;;;;;3.42;1.90;;;;;;;16.13;32.07;97601.59;5053507;28;20033;-75
2021/03/16 09:20:38;;;;;;;2.45;1.65;;;;;;;17.59;29.89;97602.53;5053055;28;20116;-75
2021/03/16 09:23:04;;;;;;;1.80;1.55;;;;;;;16.57;29.26;97598.03;5053550;28;20094;-74
2021/03/16 09:25:35;;;;;;;1.67;1.52;;;;;;;17.55;28.27;97604.38;5052426;28;20056;-74
2021/03/16 09:28:02;;;;;;;2.60;1.67;;;;;;;16.37;29.94;97598.09;5055341;28;20037;-73
2021/03/16 09:30:33;;;;;;;3.10;1.52;;;;;;;15.84;29.39;97598.94;5036637;28;20056;-74
2021/03/16 09:32:59;;;;;;;5.78;1.75;;;;;;;16.43;29.22;97596.72;5032020;28;20064;-74
2021/03/16 09:35:25;;;;;;;2.05;1.75;;;;;;;17.36;26.66;97598.59;5033116;28;20056;-73
2021/03/16 09:37:52;;;;;;;2.03;1.70;;;;;;;17.35;26.66;97594.25;5032705;28;20061;-73
2021/03/16 09:40:37;;;;;;;5.88;1.70;;;;;;;18.81;24.25;97602.75;5030321;28;20532;-73
2021/03/16 09:43:14;;;;;;;5.20;1.38;;;;;;;20.71;22.22;97593.06;5032013;28;20045;-74
2021/03/16 09:45:40;;;;;;;2.10;1.20;;;;;;;19.49;23.29;97597.69;5030518;28;20040;-74
2021/03/16 09:48:17;;;;;;;2.55;1.38;;;;;;;20.08;22.32;97592.63;5034301;28;20038;-74
2021/03/16 09:50:44;;;;;;;3.25;1.42;;;;;;;19.70;22.63;97598.97;5051963;28;20118;-75
2021/03/16 09:53:16;;;;;;;1.42;0.85;;;;;;;19.38;21.08;97597.44;5050665;28;20033;-74
2021/03/16 09:55:43;;;;;;;4.47;1.27;;;;;;;19.19;22.19;97587.09;5051208;28;20051;-74
2021/03/16 09:58:19;;;;;;;2.53;1.50;;;;;;;18.40;22.52;97596.53;5050736;28;20389;-75
2021/03/16 10:00:49;;;;;;;3.42;1.38;;;;;;;18.79;20.85;97592.06;5053081;28;20033;-75
2021/03/16 10:03:16;;;;;;;1.88;0.93;;;;;;;18.51;19.62;97583.00;5052335;28;20032;-73
2021/03/16 10:05:42;;;;;;;1.13;0.55;;;;;;;19.22;19.32;97589.16;5051929;28;20118;-73
2021/03/16 10:08:07;;;;;;;3.80;1.23;;;;;;;19.14;21.66;97595.66;5051186;28;20143;-73
2021/03/16 10:10:37;;;;;;;2.25;1.10;;;;;;;19.27;20.78;97591.63;5049967;28;20033;-74
2021/03/16 10:13:05;;;;;;;2.83;0.80;;;;;;;19.55;20.12;97590.69;5051655;28;20087;-73
2021/03/16 10:15:37;;;;;;;0.50;0.50;;;;;;;19.35;19.62;97580.72;5052155;28;20053;-75
2021/03/16 10:18:15;;;;;;;1.10;0.93;;;;;;;17.11;21.06;97573.75;5051240;28;20063;-74
2021/03/16 10:20:43;;;;;;;1.27;0.90;;;;;;;18.75;20.12;97582.03;5051323;28;20384;-73
2021/03/16 10:23:11;;;;;;;0.70;0.70;;;;;;;19.40;20.34;97583.22;5051298;28;20033;-73
2021/03/16 10:25:37;;;;;;;1.85;0.73;;;;;;;19.37;18.82;97578.38;5051107;28;20028;-73
2021/03/16 10:28:05;;;;;;;0.35;0.30;;;;;;;17.69;20.94;97570.78;5051280;28;20029;-73
2021/03/16 10:30:35;;;;;;;0.98;0.60;;;;;;;17.45;21.32;97566.09;5050962;28;20025;-75
2021/03/16 10:33:01;;;;;;;1.73;0.68;;;;;;;16.65;22.41;97565.94;5051046;28;20166;-74
2021/03/16 10:35:27;;;;;;;1.48;0.82;;;;;;;16.34;22.98;97566.44;5051076;28;20104;-73
2021/03/16 10:37:54;;;;;;;0.65;0.57;;;;;;;16.77;22.54;97562.38;5015564;28;1008027;-73
2021/03/16 10:40:20;;;;;;;0.50;0.50;;;;;;;15.25;23.15;97584.47;5052020;28;20040;-73
2021/03/16 10:42:45;;;;;;;0.85;0.63;;;;;;;14.91;23.57;97558.72;5051916;28;20025;-74
2021/03/16 10:45:11;;;;;;;2.60;0.52;;;;;;;16.33;23.06;97566.78;5051236;28;20123;-75
2021/03/16 10:47:37;;;;;;;1.33;0.55;;;;;;;17.28;21.25;97571.91;5050243;28;20044;-74
2021/03/16 10:50:03;;;;;;;0.95;0.52;;;;;;;19.02;18.58;97573.59;5049822;28;20025;-75
2021/03/16 10:52:29;;;;;;;1.00;0.57;;;;;;;18.90;18.97;97567.34;5050950;28;20118;-74
2021/03/16 10:54:54;;;;;;;0.20;0.20;;;;;;;18.59;18.37;97565.41;5054322;28;20461;-74
2021/03/16 10:57:19;;;;;;;0.10;0.10;;;;;;;19.27;17.69;97569.44;5050739;28;20453;-75
2021/03/16 10:59:45;;;;;;;0.17;0.17;;;;;;;18.00;18.79;97566.19;5051693;28;20388;-75
2021/03/16 11:02:10;;;;;;;0.55;0.40;;;;;;;17.20;20.33;97570.09;5051109;28;20358;-74
2021/03/16 11:04:35;;;;;;;0.90;0.55;;;;;;;15.71;22.58;97559.47;5051086;28;20025;-75
2021/03/16 11:07:02;;;;;;;0.60;0.50;;;;;;;16.12;20.86;97564.09;5049080;28;20082;-75
2021/03/16 11:09:29;;;;;;;3.30;0.30;;;;;;;15.55;21.77;97555.72;5049873;28;20408;-73
2021/03/16 11:11:54;;;;;;;0.40;0.28;;;;;;;14.82;21.68;97555.22;5051553;28;20098;-73
2021/03/16 11:14:19;;;;;;;0.30;0.10;;;;;;;13.87;22.93;97545.69;5051536;28;20029;-75
2021/03/16 11:16:45;;;;;;;0.93;0.43;;;;;;;13.31;24.80;97549.47;5051547;28;20021;-74
2021/03/16 11:19:10;;;;;;;0.95;0.50;;;;;;;12.79;25.39;97554.84;5051166;28;20116;-76
2021/03/16 11:21:36;;;;;;;1.02;0.50;;;;;;;13.02;25.75;97561.03;5051296;28;20033;-76
2021/03/16 11:24:01;;;;;;;0.35;0.35;;;;;;;13.23;23.93;97553.00;5051531;28;20035;-75
2021/03/16 11:26:27;;;;;;;4.68;0.28;;;;;;;12.88;23.43;97543.88;5051315;28;20362;-75
2021/03/16 11:28:53;;;;;;;0.52;0.38;;;;;;;12.98;24.43;97542.75;5052364;28;20056;-75
2021/03/16 11:31:19;;;;;;;0.45;0.40;;;;;;;12.80;24.21;97550.97;5051800;28;20028;-74
2021/03/16 11:33:45;;;;;;;0.73;0.30;;;;;;;12.13;24.19;97549.59;5051395;28;20138;-76
2021/03/16 11:36:10;;;;;;;0.20;0.20;;;;;;;12.51;24.92;97550.72;5051604;28;20057;-76
2021/03/16 11:38:35;;;;;;;0.25;0.20;;;;;;;12.71;24.29;97541.91;5049528;28;20045;-75
2021/03/16 11:41:01;;;;;;;0.82;0.82;;;;;;;12.98;24.19;97546.31;5049530;28;20078;-74
2021/03/16 11:43:28;;;;;;;1.08;0.30;;;;;;;13.09;24.37;97544.09;5050471;28;20037;-75